createdAt,value
2023-05-23T00:01:07.666Z,102079.50
2023-05-23T00:03:35.711Z,102079.34
2023-05-23T00:06:13.801Z,102083.69
2023-05-23T00:08:41.907Z,102080.63
2023-05-23T00:11:09.125Z,102082.56
2023-05-23T00:13:36.331Z,102084.56
2023-05-23T00:16:03.798Z,102078.88
2023-05-23T00:18:31.068Z,102086.00
2023-05-23T00:20:59.508Z,102080.00
2023-05-23T00:23:26.681Z,102066.38
2023-05-23T00:25:54.499Z,102075.03
2023-05-23T00:28:22.578Z,102063.28
2023-05-23T00:30:49.996Z,102069.41
2023-05-23T00:33:18.167Z,102072.06
2023-05-23T00:35:45.470Z,102074.84
2023-05-23T00:38:12.711Z,102060.66
2023-05-23T00:40:39.905Z,102062.31
2023-05-23T00:43:08.774Z,102063.44
2023-05-23T00:45:36.212Z,102067.06
2023-05-23T00:48:04.825Z,102064.56
2023-05-23T00:50:32.134Z,102066.50
2023-05-23T00:53:01.834Z,102064.31
2023-05-23T00:55:29.602Z,102056.50
2023-05-23T00:57:58.506Z,102052.59
2023-05-23T01:00:27.058Z,102055.38
2023-05-23T01:02:55.278Z,102047.88
2023-05-23T01:05:25.457Z,102052.34
2023-05-23T01:07:53.192Z,102051.63
2023-05-23T01:10:26.274Z,102050.13
2023-05-23T01:12:59.700Z,102049.59
2023-05-23T01:15:37.464Z,102057.94
2023-05-23T01:18:09.914Z,102070.34
2023-05-23T01:20:41.421Z,102058.22
2023-05-23T01:23:15.957Z,102062.00
2023-05-23T01:25:50.805Z,102070.09
2023-05-23T01:28:22.486Z,102067.03
2023-05-23T01:30:52.661Z,102064.13
2023-05-23T01:33:21.283Z,102069.97
2023-05-23T01:35:49.270Z,102073.59
2023-05-23T01:38:16.564Z,102068.03
2023-05-23T01:40:43.830Z,102069.84
2023-05-23T01:43:11.413Z,102069.00
2023-05-23T01:45:38.880Z,102072.91
2023-05-23T01:48:06.761Z,102071.09
2023-05-23T01:50:34.605Z,102072.50
2023-05-23T01:53:02.132Z,102080.28
2023-05-23T01:55:29.598Z,102075.44
2023-05-23T01:57:58.083Z,102084.75
2023-05-23T02:00:25.486Z,102083.75
2023-05-23T02:02:52.962Z,102082.25
2023-05-23T02:05:20.193Z,102080.44
2023-05-23T02:07:47.477Z,102089.34
2023-05-23T02:10:14.885Z,102092.81
2023-05-23T02:12:42.288Z,102096.72
2023-05-23T02:15:09.878Z,102094.63
2023-05-23T02:17:37.085Z,102096.44
2023-05-23T02:20:04.924Z,102099.50
2023-05-23T02:22:32.346Z,102100.47
2023-05-23T02:24:59.533Z,102098.09
2023-05-23T02:27:26.771Z,102110.34
2023-05-23T02:29:53.981Z,102107.72
2023-05-23T02:32:21.273Z,102108.94
2023-05-23T02:34:50.790Z,102105.31
2023-05-23T02:37:18.040Z,102103.81
2023-05-23T02:39:45.200Z,102102.56
2023-05-23T02:42:12.351Z,102106.16
2023-05-23T02:44:39.583Z,102107.00
2023-05-23T02:47:07.287Z,102118.97
2023-05-23T02:49:34.570Z,102118.69
2023-05-23T02:52:01.738Z,102114.09
2023-05-23T02:54:29.002Z,102114.66
2023-05-23T02:56:57.167Z,102113.69
2023-05-23T02:59:24.349Z,102117.88
2023-05-23T03:04:18.792Z,102115.91
2023-05-23T03:06:46.037Z,102118.84
2023-05-23T03:09:13.284Z,102119.66
2023-05-23T03:11:40.801Z,102121.06
2023-05-23T03:14:08.007Z,102124.00
2023-05-23T03:16:35.295Z,102114.50
2023-05-23T03:19:02.534Z,102122.56
2023-05-23T03:21:29.849Z,102124.53
2023-05-23T03:23:57.232Z,102116.44
2023-05-23T03:26:24.553Z,102115.63
2023-05-23T03:28:51.737Z,102115.78
2023-05-23T03:31:18.936Z,102113.25
2023-05-23T03:33:46.283Z,102127.31
2023-05-23T03:36:13.476Z,102124.66
2023-05-23T03:38:40.692Z,102124.13
2023-05-23T03:41:07.936Z,102125.22
2023-05-23T03:43:35.133Z,102119.78
2023-05-23T03:46:02.544Z,102121.84
2023-05-23T03:48:30.899Z,102120.75
2023-05-23T03:50:58.094Z,102114.75
2023-05-23T03:53:25.299Z,102121.84
2023-05-23T03:55:54.335Z,102118.00
2023-05-23T03:58:21.621Z,102120.63
2023-05-23T04:00:48.891Z,102124.25
2023-05-23T04:03:18.052Z,102123.50
2023-05-23T04:05:45.463Z,102121.72
2023-05-23T04:08:13.409Z,102121.72
2023-05-23T04:10:40.826Z,102119.47
2023-05-23T04:13:08.039Z,102120.84
2023-05-23T04:15:35.700Z,102122.53
2023-05-23T04:18:03.975Z,102130.31
2023-05-23T04:20:31.334Z,102134.06
2023-05-23T04:22:58.596Z,102128.22
2023-05-23T04:25:26.712Z,102129.06
2023-05-23T04:27:54.668Z,102132.25
2023-05-23T04:30:22.632Z,102138.13
2023-05-23T04:32:49.802Z,102137.00
2023-05-23T04:35:17.402Z,102136.03
2023-05-23T04:37:45.859Z,102143.84
2023-05-23T04:40:13.890Z,102149.81
2023-05-23T04:42:42.828Z,102147.91
2023-05-23T04:45:11.762Z,102153.88
2023-05-23T04:47:38.997Z,102155.97
2023-05-23T04:50:07.010Z,102159.72
2023-05-23T04:52:34.455Z,102163.22
2023-05-23T04:55:01.866Z,102168.75
2023-05-23T04:57:29.349Z,102177.94
2023-05-23T04:59:57.829Z,102174.72
2023-05-23T05:02:25.085Z,102173.72
2023-05-23T05:04:52.316Z,102173.16
2023-05-23T05:07:19.558Z,102188.03
2023-05-23T05:09:46.772Z,102186.13
2023-05-23T05:12:14.125Z,102184.28
2023-05-23T05:14:41.469Z,102188.09
2023-05-23T05:17:08.846Z,102183.09
2023-05-23T05:19:36.161Z,102179.44
2023-05-23T05:22:03.505Z,102185.72
2023-05-23T05:24:30.894Z,102189.41
2023-05-23T05:26:58.168Z,102192.34
2023-05-23T05:29:25.838Z,102185.50
2023-05-23T05:31:53.680Z,102202.75
2023-05-23T05:34:21.303Z,102198.91
2023-05-23T05:36:48.852Z,102201.63
2023-05-23T05:39:16.062Z,102197.31
2023-05-23T05:41:43.295Z,102189.94
2023-05-23T05:44:10.614Z,102190.53
2023-05-23T05:46:37.929Z,102201.78
2023-05-23T05:49:05.367Z,102196.25
2023-05-23T05:51:32.554Z,102197.91
2023-05-23T05:54:00.047Z,102194.63
2023-05-23T05:56:28.487Z,102192.28
2023-05-23T05:58:55.795Z,102199.22
2023-05-23T06:01:23.813Z,102196.56
2023-05-23T06:03:51.406Z,102200.78
2023-05-23T06:06:18.675Z,102207.16
2023-05-23T06:08:45.960Z,102200.38
2023-05-23T06:11:13.410Z,102208.06
2023-05-23T06:13:41.054Z,102210.09
2023-05-23T06:16:08.538Z,102208.00
2023-05-23T06:18:35.826Z,102213.16
2023-05-23T06:21:03.616Z,102215.91
2023-05-23T06:23:31.097Z,102229.31
2023-05-23T06:26:00.119Z,102225.22
2023-05-23T06:28:27.774Z,102212.91
2023-05-23T06:30:55.046Z,102221.91
2023-05-23T06:33:22.281Z,102220.59
2023-05-23T06:35:49.671Z,102219.25
2023-05-23T06:38:17.885Z,102208.56
2023-05-23T06:40:45.504Z,102216.97
2023-05-23T06:43:12.902Z,102214.16
2023-05-23T06:45:40.281Z,102213.69
2023-05-23T06:48:07.664Z,102213.53
2023-05-23T06:50:34.995Z,102230.06
2023-05-23T06:53:02.216Z,102215.84
2023-05-23T06:55:29.637Z,102210.69
2023-05-23T06:57:57.226Z,102210.94
2023-05-23T07:00:24.576Z,102214.41
2023-05-23T07:02:52.323Z,102216.38
2023-05-23T07:05:19.743Z,102210.84
2023-05-23T07:07:47.533Z,102212.78
2023-05-23T07:10:15.081Z,102218.22
2023-05-23T07:12:42.388Z,102215.31
2023-05-23T07:15:12.226Z,102216.81
2023-05-23T07:17:39.637Z,102219.88
2023-05-23T07:20:08.683Z,102220.13
2023-05-23T07:22:36.214Z,102222.28
2023-05-23T07:25:03.872Z,102235.63
2023-05-23T07:27:31.389Z,102232.38
2023-05-23T07:29:58.973Z,102231.34
2023-05-23T07:32:26.315Z,102233.72
2023-05-23T07:34:54.691Z,102235.16
2023-05-23T07:37:22.130Z,102227.78
2023-05-23T07:39:49.567Z,102232.00
2023-05-23T07:42:16.942Z,102227.97
2023-05-23T07:44:44.302Z,102221.13
2023-05-23T07:47:11.990Z,102224.28
2023-05-23T07:49:39.894Z,102229.00
2023-05-23T07:52:07.467Z,102227.97
2023-05-23T07:54:34.926Z,102220.22
2023-05-23T07:57:02.419Z,102223.28
2023-05-23T07:59:33.724Z,102221.59
2023-05-23T08:02:01.981Z,102229.09
2023-05-23T08:04:30.460Z,102240.94
2023-05-23T08:07:04.806Z,102238.34
2023-05-23T08:09:33.130Z,102245.69
2023-05-23T08:12:00.714Z,102241.81
2023-05-23T08:14:38.666Z,102236.28
2023-05-23T08:17:16.117Z,102233.28
2023-05-23T08:19:44.250Z,102236.09
2023-05-23T08:22:11.582Z,102237.75
2023-05-23T08:24:39.425Z,102229.19
2023-05-23T08:27:08.305Z,102237.44
2023-05-23T08:29:36.020Z,102236.97
2023-05-23T08:32:04.131Z,102224.75
2023-05-23T08:34:31.905Z,102232.78
2023-05-23T08:36:59.436Z,102233.63
2023-05-23T08:39:26.823Z,102238.78
2023-05-23T08:41:54.174Z,102236.59
2023-05-23T08:44:21.818Z,102224.56
2023-05-23T08:46:53.941Z,102236.00
2023-05-23T08:49:23.785Z,102226.81
2023-05-23T08:51:54.916Z,102235.75
2023-05-23T08:54:22.782Z,102238.13
2023-05-23T08:56:50.226Z,102243.97
2023-05-23T08:59:18.227Z,102238.34
2023-05-23T09:01:47.992Z,102239.75
2023-05-23T09:04:15.765Z,102245.59
2023-05-23T09:06:43.139Z,102247.28
2023-05-23T09:09:10.556Z,102241.84
2023-05-23T09:11:38.160Z,102242.84
2023-05-23T09:14:08.454Z,102239.84
2023-05-23T09:16:36.213Z,102245.31
2023-05-23T09:19:12.191Z,102245.38
2023-05-23T09:21:45.637Z,102253.53
2023-05-23T09:24:13.422Z,102246.16
2023-05-23T09:26:40.850Z,102244.41
2023-05-23T09:29:08.507Z,102238.53
2023-05-23T09:31:36.064Z,102243.66
2023-05-23T09:34:05.039Z,102240.69
2023-05-23T09:36:35.527Z,102237.72
2023-05-23T09:39:05.946Z,102242.97
2023-05-23T09:41:36.633Z,102249.56
2023-05-23T09:44:09.122Z,102250.72
2023-05-23T09:46:38.753Z,102242.03
2023-05-23T09:49:12.571Z,102252.72
2023-05-23T09:51:40.421Z,102253.31
2023-05-23T09:54:07.924Z,102253.81
2023-05-23T09:56:42.179Z,102256.81
2023-05-23T09:59:12.604Z,102265.72
2023-05-23T10:01:42.079Z,102259.59
2023-05-23T10:04:11.457Z,102262.50
2023-05-23T10:06:45.305Z,102266.63
2023-05-23T10:09:18.382Z,102262.69
2023-05-23T10:11:51.855Z,102269.56
2023-05-23T10:14:19.612Z,102266.06
2023-05-23T10:16:52.175Z,102266.16
2023-05-23T10:19:22.707Z,102270.03
2023-05-23T10:21:56.029Z,102255.28
2023-05-23T10:24:25.298Z,102253.00
2023-05-23T10:26:54.198Z,102259.44
2023-05-23T10:29:23.710Z,102253.94
2023-05-23T10:31:52.689Z,102249.94
2023-05-23T10:34:24.957Z,102245.59
2023-05-23T10:36:56.023Z,102243.16
2023-05-23T10:39:29.737Z,102240.56
2023-05-23T10:42:02.711Z,102243.38
2023-05-23T10:44:31.720Z,102251.56
2023-05-23T10:47:02.822Z,102256.38
2023-05-23T10:49:42.160Z,102252.06
2023-05-23T10:52:11.969Z,102252.06
2023-05-23T10:54:44.268Z,102253.72
2023-05-23T10:57:13.584Z,102260.03
2023-05-23T10:59:41.384Z,102255.75
2023-05-23T11:02:17.766Z,102267.59
2023-05-23T11:04:45.723Z,102258.78
2023-05-23T11:07:25.004Z,102259.28
2023-05-23T11:09:58.585Z,102256.13
2023-05-23T11:12:36.869Z,102253.13
2023-05-23T11:15:23.145Z,102251.31
2023-05-23T11:17:54.245Z,102253.00
2023-05-23T11:20:26.619Z,102262.13
2023-05-23T11:22:56.449Z,102259.00
2023-05-23T11:25:42.482Z,102260.31
2023-05-23T11:28:11.280Z,102256.00
2023-05-23T11:30:40.039Z,102264.16
2023-05-23T11:33:14.101Z,102264.34
2023-05-23T11:35:42.920Z,102264.34
2023-05-23T11:38:11.527Z,102270.66
2023-05-23T11:40:41.782Z,102257.69
2023-05-23T11:43:12.013Z,102257.00
2023-05-23T11:45:40.607Z,102253.84
2023-05-23T11:48:10.403Z,102257.50
2023-05-23T11:50:44.469Z,102249.81
2023-05-23T11:53:12.343Z,102252.00
2023-05-23T11:55:48.773Z,102249.50
2023-05-23T11:58:16.327Z,102249.69
2023-05-23T12:00:45.853Z,102247.84
2023-05-23T12:03:13.491Z,102242.84
2023-05-23T12:05:45.594Z,102248.03
2023-05-23T12:08:15.015Z,102252.16
2023-05-23T12:10:48.733Z,102261.16
2023-05-23T12:13:16.316Z,102248.00
2023-05-23T12:15:43.948Z,102245.00
2023-05-23T12:18:13.577Z,102255.66
2023-05-23T12:20:42.679Z,102260.50
2023-05-23T12:23:18.375Z,102251.00
2023-05-23T12:25:50.114Z,102248.84
2023-05-23T12:28:17.501Z,102245.84
2023-05-23T12:30:45.181Z,102235.53
2023-05-23T12:33:13.135Z,102242.97
2023-05-23T12:35:45.301Z,102237.13
2023-05-23T12:38:17.824Z,102240.44
2023-05-23T12:40:45.241Z,102235.47
2023-05-23T12:43:13.200Z,102237.97
2023-05-23T12:45:40.975Z,102234.63
2023-05-23T12:48:09.186Z,102226.16
2023-05-23T12:50:36.869Z,102229.66
2023-05-23T12:53:04.340Z,102221.34
2023-05-23T12:55:31.679Z,102224.16
2023-05-23T12:57:59.174Z,102227.81
2023-05-23T13:00:26.803Z,102221.66
2023-05-23T13:02:54.385Z,102229.50
2023-05-23T13:05:22.903Z,102217.66
2023-05-23T13:07:50.427Z,102210.66
2023-05-23T13:10:17.898Z,102220.16
2023-05-23T13:12:45.294Z,102218.47
2023-05-23T13:15:13.005Z,102225.16
2023-05-23T13:17:41.587Z,102220.81
2023-05-23T13:20:10.064Z,102221.13
2023-05-23T13:22:37.720Z,102216.81
2023-05-23T13:25:05.867Z,102215.50
2023-05-23T13:27:33.492Z,102220.81
2023-05-23T13:30:01.123Z,102224.00
2023-05-23T13:32:28.919Z,102220.47
2023-05-23T13:34:56.488Z,102209.16
2023-05-23T13:37:23.994Z,102214.00
2023-05-23T13:39:51.642Z,102208.47
2023-05-23T13:42:19.111Z,102208.81
2023-05-23T13:44:46.771Z,102202.16
2023-05-23T13:47:16.410Z,102200.47
2023-05-23T13:49:44.317Z,102204.94
2023-05-23T13:52:12.406Z,102208.13
2023-05-23T13:54:39.916Z,102204.63
2023-05-23T13:57:07.691Z,102206.81
2023-05-23T13:59:35.149Z,102198.28
2023-05-23T14:02:02.733Z,102198.75
2023-05-23T14:04:30.582Z,102206.59
2023-05-23T14:06:58.092Z,102207.25
2023-05-23T14:09:25.868Z,102214.41
2023-05-23T14:11:54.264Z,102199.13
2023-05-23T14:14:22.314Z,102200.13
2023-05-23T14:16:52.244Z,102198.28
2023-05-23T14:19:20.354Z,102197.94
2023-05-23T14:21:48.129Z,102196.25
2023-05-23T14:24:16.249Z,102193.91
2023-05-23T14:26:43.812Z,102195.75
2023-05-23T14:29:11.850Z,102195.75
2023-05-23T14:31:39.768Z,102200.38
2023-05-23T14:34:07.590Z,102197.88
2023-05-23T14:36:35.333Z,102187.13
2023-05-23T14:39:04.676Z,102191.94
2023-05-23T14:41:32.361Z,102189.47
2023-05-23T14:44:03.442Z,102183.63
2023-05-23T14:46:40.411Z,102177.22
2023-05-23T14:49:11.832Z,102185.06
2023-05-23T14:51:46.226Z,102183.84
2023-05-23T14:54:17.832Z,102178.66
2023-05-23T14:57:02.412Z,102173.16
2023-05-23T14:59:31.656Z,102178.50
2023-05-23T15:01:59.431Z,102174.69
2023-05-23T15:04:33.729Z,102181.03
2023-05-23T15:07:27.143Z,102190.69
2023-05-23T15:10:06.832Z,102188.50
2023-05-23T15:12:43.415Z,102189.03
2023-05-23T15:15:27.103Z,102184.06
2023-05-23T15:17:56.306Z,102180.56
2023-05-23T15:20:28.214Z,102163.03
2023-05-23T15:22:56.753Z,102178.19
2023-05-23T15:25:46.977Z,102176.69
2023-05-23T15:28:19.029Z,102169.44
2023-05-23T15:30:53.284Z,102167.91
2023-05-23T15:33:36.753Z,102175.44
2023-05-23T15:36:05.534Z,102178.41
2023-05-23T15:38:52.369Z,102179.03
2023-05-23T15:41:24.681Z,102174.53
2023-05-23T15:46:41.094Z,102164.56
2023-05-23T15:49:21.694Z,102168.91
2023-05-23T15:52:02.291Z,102164.88
2023-05-23T15:54:34.577Z,102178.66
2023-05-23T15:57:06.303Z,102181.06
2023-05-23T15:59:41.260Z,102185.38
2023-05-23T16:02:11.404Z,102181.50
2023-05-23T16:05:04.702Z,102171.97
2023-05-23T16:07:46.146Z,102175.91
2023-05-23T16:16:23.001Z,102173.88
2023-05-23T16:19:08.010Z,102168.41
2023-05-23T16:21:38.926Z,102173.63
2023-05-23T16:24:14.643Z,102167.81
2023-05-23T16:30:11.012Z,102177.69
2023-05-23T16:35:33.893Z,102162.81
2023-05-23T16:38:06.534Z,102169.66
2023-05-23T16:40:36.510Z,102162.09
2023-05-23T16:43:14.795Z,102159.91
2023-05-23T16:45:43.311Z,102153.28
2023-05-23T16:51:23.994Z,102159.91
2023-05-23T16:54:07.876Z,102152.25
2023-05-23T16:56:49.022Z,102169.28
2023-05-23T16:59:17.043Z,102173.97
2023-05-23T17:01:46.175Z,102166.38
2023-05-23T17:04:37.653Z,102161.56
2023-05-23T17:07:12.504Z,102157.41
2023-05-23T17:09:46.233Z,102149.41
2023-05-23T17:12:16.433Z,102143.75
2023-05-23T17:14:54.149Z,102143.63
2023-05-23T17:17:35.961Z,102142.31
2023-05-23T17:20:13.661Z,102147.19
2023-05-23T17:23:04.288Z,102151.72
2023-05-23T17:25:43.499Z,102145.41
2023-05-23T17:28:21.573Z,102148.25
2023-05-23T17:31:01.649Z,102141.25
2023-05-23T17:33:33.518Z,102149.75
2023-05-23T17:36:08.544Z,102146.41
2023-05-23T17:38:52.108Z,102146.41
2023-05-23T17:44:15.220Z,102150.38
2023-05-23T17:46:43.972Z,102151.59
2023-05-23T17:49:19.164Z,102152.22
2023-05-23T17:51:53.031Z,102149.25
2023-05-23T17:54:20.996Z,102151.75
2023-05-23T17:56:48.685Z,102143.09
2023-05-23T17:59:16.314Z,102153.94
2023-05-23T18:01:45.819Z,102152.75
2023-05-23T18:04:13.716Z,102140.44
2023-05-23T18:06:41.736Z,102145.94
2023-05-23T18:09:10.562Z,102147.25
2023-05-23T18:11:39.169Z,102148.91
2023-05-23T18:14:07.870Z,102156.75
2023-05-23T18:16:35.564Z,102162.28
2023-05-23T18:19:03.498Z,102152.78
2023-05-23T18:21:32.282Z,102159.50
2023-05-23T18:24:00.133Z,102155.31
2023-05-23T18:26:28.600Z,102154.16
2023-05-23T18:29:00.095Z,102156.00
2023-05-23T18:31:27.951Z,102156.00
2023-05-23T18:33:56.383Z,102152.16
2023-05-23T18:36:23.653Z,102146.50
2023-05-23T18:38:52.313Z,102151.00
2023-05-23T18:41:19.669Z,102149.50
2023-05-23T18:43:48.525Z,102151.66
2023-05-23T18:46:16.705Z,102150.00
2023-05-23T18:48:44.209Z,102150.66
2023-05-23T18:51:12.923Z,102146.38
2023-05-23T18:53:42.437Z,102142.19
2023-05-23T18:56:10.386Z,102146.53
2023-05-23T18:58:37.945Z,102149.38
2023-05-23T19:01:05.679Z,102147.06
2023-05-23T19:03:35.519Z,102152.53
2023-05-23T19:06:03.960Z,102155.72
2023-05-23T19:08:35.427Z,102158.91
2023-05-23T19:11:08.084Z,102150.91
2023-05-23T19:13:35.686Z,102151.41
2023-05-23T19:16:03.589Z,102146.44
2023-05-23T19:18:31.160Z,102154.59
2023-05-23T19:20:58.706Z,102144.59
2023-05-23T19:23:26.075Z,102151.13
2023-05-23T19:25:53.699Z,102140.16
2023-05-23T19:28:21.294Z,102153.78
2023-05-23T19:30:48.787Z,102144.31
2023-05-23T19:33:17.062Z,102150.13
2023-05-23T19:35:44.491Z,102156.47
2023-05-23T19:38:12.441Z,102156.97
2023-05-23T19:40:40.270Z,102159.63
2023-05-23T19:43:08.169Z,102166.25
2023-05-23T19:45:37.378Z,102181.44
2023-05-23T19:48:05.019Z,102175.44
2023-05-23T19:50:32.221Z,102180.28
2023-05-23T19:53:00.218Z,102179.75
2023-05-23T19:55:28.038Z,102177.09
2023-05-23T19:57:55.325Z,102178.75
2023-05-23T20:00:29.220Z,102174.75
2023-05-23T20:02:57.518Z,102184.72
2023-05-23T20:05:24.812Z,102180.19
2023-05-23T20:07:53.300Z,102182.34
2023-05-23T20:10:20.984Z,102184.53
2023-05-23T20:12:48.936Z,102192.81
2023-05-23T20:15:21.812Z,102196.81
2023-05-23T20:17:55.445Z,102194.47
2023-05-23T20:20:22.906Z,102199.13
2023-05-23T20:22:50.111Z,102209.75
2023-05-23T20:25:18.070Z,102210.94
2023-05-23T20:27:45.295Z,102210.41
2023-05-23T20:30:13.572Z,102210.06
2023-05-23T20:32:42.887Z,102210.72
2023-05-23T20:35:11.139Z,102212.84
2023-05-23T20:37:39.604Z,102214.03
2023-05-23T20:40:09.348Z,102205.38
2023-05-23T20:42:36.881Z,102207.53
2023-05-23T20:45:07.681Z,102211.31
2023-05-23T20:47:41.886Z,102211.66
2023-05-23T20:50:11.227Z,102207.50
2023-05-23T20:52:41.708Z,102213.97
2023-05-23T20:55:10.648Z,102218.91
2023-05-23T20:57:37.984Z,102222.91
2023-05-23T21:00:11.553Z,102225.00
2023-05-23T21:02:40.847Z,102228.34
2023-05-23T21:05:10.175Z,102219.81
2023-05-23T21:07:37.594Z,102226.31
2023-05-23T21:10:05.391Z,102223.78
2023-05-23T21:12:32.786Z,102218.63
2023-05-23T21:15:00.041Z,102214.47
2023-05-23T21:17:27.529Z,102213.09
2023-05-23T21:19:54.895Z,102211.56
2023-05-23T21:22:22.151Z,102210.22
2023-05-23T21:24:49.390Z,102213.03
2023-05-23T21:27:16.561Z,102204.53
2023-05-23T21:29:43.958Z,102209.34
2023-05-23T21:32:11.324Z,102203.81
2023-05-23T21:34:38.449Z,102213.59
2023-05-23T21:37:05.802Z,102218.41
2023-05-23T21:39:43.335Z,102220.38
2023-05-23T21:42:19.050Z,102216.38
2023-05-23T21:44:46.255Z,102218.66
2023-05-23T21:47:13.828Z,102215.47
2023-05-23T21:49:41.297Z,102227.41
2023-05-23T21:52:08.507Z,102227.94
2023-05-23T21:54:35.851Z,102221.78
2023-05-23T21:57:03.191Z,102221.91
2023-05-23T21:59:30.660Z,102222.38
2023-05-23T22:01:58.225Z,102220.72
2023-05-23T22:04:25.344Z,102209.56
2023-05-23T22:06:52.976Z,102209.06
2023-05-23T22:09:20.348Z,102204.88
2023-05-23T22:11:47.726Z,102200.53
2023-05-23T22:14:14.914Z,102207.16
2023-05-23T22:16:42.259Z,102207.47
2023-05-23T22:19:10.550Z,102207.94
2023-05-23T22:21:39.709Z,102200.81
2023-05-23T22:24:07.470Z,102203.59
2023-05-23T22:26:34.863Z,102209.06
2023-05-23T22:29:02.485Z,102208.41
2023-05-23T22:31:29.731Z,102207.72
2023-05-23T22:33:57.396Z,102208.31
2023-05-23T22:36:24.688Z,102202.63
2023-05-23T22:38:51.800Z,102202.63
2023-05-23T22:41:19.418Z,102197.31
2023-05-23T22:43:47.257Z,102204.63
2023-05-23T22:46:14.706Z,102203.78
2023-05-23T22:48:42.149Z,102207.56
2023-05-23T22:51:12.835Z,102205.22
2023-05-23T22:53:40.030Z,102202.84
2023-05-23T22:56:07.777Z,102213.63
2023-05-23T22:58:35.126Z,102205.34
2023-05-23T23:01:02.336Z,102205.22
2023-05-23T23:03:29.494Z,102202.69
2023-05-23T23:05:57.923Z,102201.88
2023-05-23T23:08:25.056Z,102193.25
2023-05-23T23:10:52.171Z,102200.50
2023-05-23T23:13:19.471Z,102193.94
2023-05-23T23:15:49.999Z,102196.47
2023-05-23T23:18:17.158Z,102204.25
2023-05-23T23:20:44.752Z,102206.22
2023-05-23T23:23:12.549Z,102200.53
2023-05-23T23:25:40.633Z,102206.00
2023-05-23T23:28:07.975Z,102206.13
2023-05-23T23:30:35.100Z,102190.91
2023-05-23T23:33:02.397Z,102192.88
2023-05-23T23:35:29.662Z,102188.56
2023-05-23T23:37:56.860Z,102190.22
2023-05-23T23:40:24.925Z,102182.44
2023-05-23T23:42:51.996Z,102190.53
2023-05-23T23:45:19.335Z,102183.41
2023-05-23T23:47:46.872Z,102180.63
2023-05-23T23:50:14.310Z,102180.63
2023-05-23T23:52:41.673Z,102184.25
2023-05-23T23:55:09.368Z,102184.91
2023-05-23T23:57:36.446Z,102169.38
